Terminal Aerodrome Forecast
Issued by NWS Spokane, WA

Home | Current Version | Previous Version | Text Only | Print | Product List | Glossary On
Versions: 1 2 3 4 5 6 7 8 9 10 11 12 13 14 15 16 17 18 19 20 21 22 23 24 25 26
000
FTUS46 KOTX 040525
TAFGEG
TAF
KGEG 040525Z 0406/0506 19010KT P6SM FEW070 BKN100 OVC200
     FM040900 21017KT P6SM -RA BKN015 OVC030
     FM041500 22013G23KT P6SM OVC020
     FM042000 26020G26KT P6SM BKN100
     FM050000 26012KT P6SM FEW100=

USA.gov is the U.S. government's official web portal to all federal, state and local government web resources and services.